createdAt,value
2018-11-04T00:01:36.791Z,18.40
2018-11-04T00:04:06.131Z,18.40
2018-11-04T00:06:35.469Z,18.40
2018-11-04T00:09:07.018Z,18.40
2018-11-04T00:11:36.313Z,18.30
2018-11-04T00:14:05.706Z,18.40
2018-11-04T00:16:35.312Z,18.30
2018-11-04T00:19:04.753Z,18.40
2018-11-04T00:21:34.068Z,18.40
2018-11-04T00:24:03.424Z,18.30
2018-11-04T00:26:32.730Z,18.30
2018-11-04T00:29:02.074Z,18.30
2018-11-04T00:31:31.372Z,18.40
2018-11-04T00:34:00.639Z,18.30
2018-11-04T00:36:29.888Z,18.30
2018-11-04T00:38:59.178Z,18.30
2018-11-04T00:41:28.419Z,18.30
2018-11-04T00:43:57.611Z,18.30
2018-11-04T00:46:26.860Z,18.30
2018-11-04T00:48:56.124Z,18.30
2018-11-04T00:51:25.375Z,18.30
2018-11-04T00:53:54.708Z,18.30
2018-11-04T00:56:23.977Z,18.30
2018-11-04T00:58:53.248Z,18.30
2018-11-04T01:01:22.612Z,18.30
2018-11-04T01:03:51.888Z,18.30
2018-11-04T01:06:21.134Z,18.30
2018-11-04T01:08:50.413Z,18.30
2018-11-04T01:11:19.644Z,18.30
2018-11-04T01:13:48.992Z,18.30
2018-11-04T01:16:18.233Z,18.30
2018-11-04T01:18:47.442Z,18.30
2018-11-04T01:21:16.743Z,18.30
2018-11-04T01:23:46.064Z,18.30
2018-11-04T01:26:15.341Z,18.30
2018-11-04T01:28:44.631Z,18.20
2018-11-04T01:31:13.966Z,18.20
2018-11-04T01:33:43.227Z,18.30
2018-11-04T01:36:12.438Z,18.20
2018-11-04T01:38:41.749Z,18.20
2018-11-04T01:41:11.033Z,18.20
2018-11-04T01:43:40.273Z,18.30
2018-11-04T01:46:09.589Z,18.20
2018-11-04T01:48:38.816Z,18.20
2018-11-04T01:51:08.090Z,18.20
2018-11-04T01:53:37.408Z,18.20
2018-11-04T01:56:06.697Z,18.20
2018-11-04T01:58:35.964Z,18.10
2018-11-04T02:01:05.337Z,18.10
2018-11-04T02:03:34.604Z,18.10
2018-11-04T02:06:03.880Z,18.10
2018-11-04T02:08:33.130Z,18.10
2018-11-04T02:11:02.396Z,18.10
2018-11-04T02:13:31.693Z,18.10
2018-11-04T02:16:00.993Z,18.20
2018-11-04T02:18:30.272Z,18.10
2018-11-04T02:20:59.567Z,18.20
2018-11-04T02:23:28.902Z,18.20
2018-11-04T02:25:58.282Z,18.20
2018-11-04T02:28:28.096Z,18.20
2018-11-04T02:30:57.442Z,18.20
2018-11-04T02:33:26.796Z,18.20
2018-11-04T02:35:56.166Z,18.20
2018-11-04T02:38:25.472Z,18.20
2018-11-04T02:40:54.757Z,18.20
2018-11-04T02:43:24.062Z,18.20
2018-11-04T02:45:53.396Z,18.20
2018-11-04T02:48:22.714Z,18.20
2018-11-04T02:50:52.091Z,18.20
2018-11-04T02:53:21.406Z,18.20
2018-11-04T02:55:50.756Z,18.20
2018-11-04T02:58:20.067Z,18.20
2018-11-04T03:00:49.391Z,18.30
2018-11-04T03:03:18.703Z,18.20
2018-11-04T03:05:48.006Z,18.20
2018-11-04T03:08:17.268Z,18.20
2018-11-04T03:10:46.568Z,18.20
2018-11-04T03:13:15.904Z,18.20
2018-11-04T03:15:45.172Z,18.20
2018-11-04T03:18:14.424Z,18.20
2018-11-04T03:20:43.712Z,18.10
2018-11-04T03:23:13.000Z,18.10
2018-11-04T03:25:42.465Z,18.10
2018-11-04T03:28:11.736Z,18.10
2018-11-04T03:30:41.063Z,18.10
2018-11-04T03:33:10.533Z,18.00
2018-11-04T03:35:39.813Z,18.00
2018-11-04T03:38:09.449Z,18.00
2018-11-04T03:40:38.753Z,18.00
2018-11-04T03:43:08.029Z,18.00
2018-11-04T03:45:37.348Z,18.00
2018-11-04T03:48:06.839Z,17.90
2018-11-04T03:50:36.125Z,17.90
2018-11-04T03:53:06.069Z,17.90
2018-11-04T03:55:36.456Z,17.90
2018-11-04T03:58:05.922Z,17.90
2018-11-04T04:00:35.193Z,17.90
2018-11-04T04:03:04.476Z,17.80
2018-11-04T04:05:33.829Z,17.80
2018-11-04T04:08:03.153Z,17.80
2018-11-04T04:10:32.415Z,17.80
2018-11-04T04:13:01.787Z,17.80
2018-11-04T04:15:31.092Z,17.80
2018-11-04T04:18:00.478Z,17.80
2018-11-04T04:20:29.692Z,17.70
2018-11-04T04:22:58.961Z,17.70
2018-11-04T04:25:28.197Z,17.70
2018-11-04T04:27:57.478Z,17.60
2018-11-04T04:30:26.689Z,17.60
2018-11-04T04:32:55.940Z,17.60
2018-11-04T04:35:25.240Z,17.60
2018-11-04T04:37:54.523Z,17.60
2018-11-04T04:40:23.789Z,17.60
2018-11-04T04:42:53.100Z,17.60
2018-11-04T04:45:22.334Z,17.60
2018-11-04T04:47:51.545Z,17.60
2018-11-04T04:50:20.852Z,17.50
2018-11-04T04:52:50.089Z,17.50
2018-11-04T04:55:19.332Z,17.50
2018-11-04T04:57:48.585Z,17.50
2018-11-04T05:00:17.894Z,17.50
2018-11-04T05:02:47.167Z,17.50
2018-11-04T05:05:16.474Z,17.50
2018-11-04T05:07:45.818Z,17.50
2018-11-04T05:10:15.081Z,17.60
2018-11-04T05:12:44.436Z,17.60
2018-11-04T05:15:13.767Z,17.60
2018-11-04T05:17:43.029Z,17.60
2018-11-04T05:20:12.337Z,17.60
2018-11-04T05:22:41.617Z,17.60
2018-11-04T05:25:10.889Z,17.50
2018-11-04T05:27:40.164Z,17.50
2018-11-04T05:30:11.165Z,17.50
2018-11-04T05:32:40.536Z,17.50
2018-11-04T05:35:09.789Z,17.40
2018-11-04T05:37:39.044Z,17.40
2018-11-04T05:40:08.704Z,17.40
2018-11-04T05:42:38.024Z,17.40
2018-11-04T05:45:08.330Z,17.50
2018-11-04T05:47:37.692Z,17.40
2018-11-04T05:50:07.131Z,17.40
2018-11-04T05:52:36.826Z,17.40
2018-11-04T05:55:07.265Z,17.40
2018-11-04T05:57:36.558Z,17.40
2018-11-04T06:00:06.861Z,17.40
2018-11-04T06:02:36.152Z,17.40
2018-11-04T06:05:06.028Z,17.40
2018-11-04T06:07:35.347Z,17.30
2018-11-04T06:10:04.713Z,17.30
2018-11-04T06:12:33.965Z,17.30
2018-11-04T06:15:03.325Z,17.30
2018-11-04T06:17:32.587Z,17.30
2018-11-04T06:20:01.810Z,17.20
2018-11-04T06:22:31.085Z,17.20
2018-11-04T06:25:00.344Z,17.20
2018-11-04T06:27:29.624Z,17.20
2018-11-04T06:29:58.943Z,17.20
2018-11-04T06:32:28.188Z,17.20
2018-11-04T06:34:57.495Z,17.20
2018-11-04T06:37:26.814Z,17.20
2018-11-04T06:39:56.395Z,17.20
2018-11-04T06:42:25.653Z,17.20
2018-11-04T06:44:54.964Z,17.20
2018-11-04T06:47:24.272Z,17.20
2018-11-04T06:49:53.598Z,17.20
2018-11-04T06:52:22.908Z,17.20
2018-11-04T06:54:52.145Z,17.20
2018-11-04T06:57:21.592Z,17.20
2018-11-04T06:59:50.910Z,17.20
2018-11-04T07:02:20.176Z,17.10
2018-11-04T07:04:49.490Z,17.10
2018-11-04T07:07:18.791Z,17.10
2018-11-04T07:09:48.036Z,17.20
2018-11-04T07:12:17.360Z,17.10
2018-11-04T07:14:46.658Z,17.20
2018-11-04T07:17:15.966Z,17.20
2018-11-04T07:19:48.530Z,17.20
2018-11-04T07:22:17.835Z,17.20
2018-11-04T07:24:47.256Z,17.30
2018-11-04T07:27:16.560Z,17.30
2018-11-04T07:29:45.800Z,17.30
2018-11-04T07:32:15.229Z,17.30
2018-11-04T07:34:44.562Z,17.30
2018-11-04T07:37:13.886Z,17.30
2018-11-04T07:39:43.196Z,17.40
2018-11-04T07:42:12.565Z,17.40
2018-11-04T07:44:41.880Z,17.40
2018-11-04T07:47:11.125Z,17.50
2018-11-04T07:49:40.449Z,17.50
2018-11-04T07:52:09.761Z,17.60
2018-11-04T07:54:39.069Z,17.60
2018-11-04T07:57:08.265Z,17.70
2018-11-04T07:59:37.528Z,17.80
2018-11-04T08:02:06.948Z,17.80
2018-11-04T08:04:36.283Z,17.90
2018-11-04T08:07:05.578Z,17.90
2018-11-04T08:09:34.771Z,18.00
2018-11-04T08:12:03.987Z,18.10
2018-11-04T08:14:33.227Z,18.20
2018-11-04T08:17:02.453Z,18.20
2018-11-04T08:19:31.710Z,18.30
2018-11-04T08:22:00.952Z,18.40
2018-11-04T08:24:30.220Z,18.50
2018-11-04T08:26:59.540Z,18.50
2018-11-04T08:29:28.752Z,18.60
2018-11-04T08:31:58.091Z,18.70
2018-11-04T08:34:27.353Z,18.70
2018-11-04T08:36:56.596Z,18.70
2018-11-04T08:39:25.796Z,18.80
2018-11-04T08:41:55.073Z,18.80
2018-11-04T08:44:24.432Z,18.90
2018-11-04T08:46:53.660Z,19.00
2018-11-04T08:49:22.906Z,19.00
2018-11-04T08:51:52.249Z,19.00
2018-11-04T08:54:21.408Z,19.10
2018-11-04T08:56:50.966Z,19.20
2018-11-04T08:59:20.267Z,19.10
2018-11-04T09:01:49.485Z,19.20
2018-11-04T09:04:18.676Z,19.20
2018-11-04T09:06:47.951Z,19.20
2018-11-04T09:09:17.135Z,19.20
2018-11-04T09:11:46.529Z,19.30
2018-11-04T09:14:15.947Z,19.30
2018-11-04T09:16:45.091Z,19.40
2018-11-04T09:19:14.420Z,19.40
2018-11-04T09:21:43.877Z,19.40
2018-11-04T09:24:13.171Z,19.40
2018-11-04T09:26:42.401Z,19.40
2018-11-04T09:29:11.789Z,19.40
2018-11-04T09:31:40.991Z,19.40
2018-11-04T09:34:10.280Z,19.40
2018-11-04T09:36:40.022Z,19.40
2018-11-04T09:39:11.013Z,19.40
2018-11-04T09:41:40.237Z,19.40
2018-11-04T09:44:10.871Z,19.40
2018-11-04T09:46:40.131Z,19.50
2018-11-04T09:49:09.332Z,19.50
2018-11-04T09:51:38.623Z,19.50
2018-11-04T09:54:07.818Z,19.40
2018-11-04T09:56:37.132Z,19.50
2018-11-04T09:59:06.755Z,19.50
2018-11-04T10:01:35.920Z,19.50
2018-11-04T10:04:05.709Z,19.50
2018-11-04T10:06:35.004Z,19.50
2018-11-04T10:09:04.960Z,19.60
2018-11-04T10:11:34.152Z,19.60
2018-11-04T10:14:03.375Z,19.60
2018-11-04T10:16:32.555Z,19.60
2018-11-04T10:19:01.918Z,19.60
2018-11-04T10:21:31.209Z,19.60
2018-11-04T10:24:00.433Z,19.60
2018-11-04T10:26:29.727Z,19.60
2018-11-04T10:28:58.943Z,19.60
2018-11-04T10:31:28.117Z,19.50
2018-11-04T10:33:57.460Z,19.50
2018-11-04T10:36:26.816Z,19.60
2018-11-04T10:38:56.048Z,19.60
2018-11-04T10:41:25.229Z,19.70
2018-11-04T10:43:54.501Z,19.60
2018-11-04T10:46:24.255Z,19.70
2018-11-04T10:48:53.514Z,19.70
2018-11-04T10:51:22.728Z,19.70
2018-11-04T10:53:51.891Z,19.60
2018-11-04T10:56:21.114Z,19.70
2018-11-04T10:58:50.407Z,19.70
2018-11-04T11:01:19.615Z,19.70
2018-11-04T11:03:48.854Z,19.70
2018-11-04T11:06:18.089Z,19.70
2018-11-04T11:08:47.312Z,19.70
2018-11-04T11:11:16.548Z,19.70
2018-11-04T11:13:45.840Z,19.70
2018-11-04T11:16:15.051Z,19.70
2018-11-04T11:18:44.367Z,19.80
2018-11-04T11:21:13.609Z,19.80
2018-11-04T11:23:42.877Z,19.80
2018-11-04T11:26:12.187Z,19.80
2018-11-04T11:28:41.506Z,19.80
2018-11-04T11:31:10.716Z,19.90
2018-11-04T11:33:39.974Z,19.90
2018-11-04T11:36:09.208Z,19.90
2018-11-04T11:38:38.419Z,19.90
2018-11-04T11:41:07.687Z,19.80
2018-11-04T11:43:37.037Z,19.80
2018-11-04T11:46:06.719Z,19.80
2018-11-04T11:48:35.907Z,19.80
2018-11-04T11:51:05.359Z,19.80
2018-11-04T11:53:34.556Z,19.80
2018-11-04T11:56:03.737Z,19.80
2018-11-04T11:58:32.944Z,19.70
2018-11-04T12:01:02.140Z,19.70
2018-11-04T12:03:31.331Z,19.70
2018-11-04T12:06:00.530Z,19.60
2018-11-04T12:08:29.775Z,19.60
2018-11-04T12:10:58.967Z,19.60
2018-11-04T12:13:28.242Z,19.60
2018-11-04T12:15:57.596Z,19.60
2018-11-04T12:18:26.817Z,19.60
2018-11-04T12:20:56.026Z,19.60
2018-11-04T12:23:25.346Z,19.60
2018-11-04T12:25:54.546Z,19.60
2018-11-04T12:28:23.828Z,19.70
2018-11-04T12:30:53.115Z,19.70
2018-11-04T12:33:22.303Z,19.60
2018-11-04T12:35:51.537Z,19.60
2018-11-04T12:38:21.747Z,19.60
2018-11-04T12:40:50.971Z,19.60
2018-11-04T12:43:20.241Z,19.50
2018-11-04T12:45:49.601Z,19.60
2018-11-04T12:48:18.743Z,19.50
2018-11-04T12:50:47.981Z,19.50
2018-11-04T12:53:17.195Z,19.50
2018-11-04T12:55:46.431Z,19.50
2018-11-04T12:58:15.678Z,19.40
2018-11-04T13:00:44.925Z,19.40
2018-11-04T13:03:14.226Z,19.40
2018-11-04T13:05:43.512Z,19.40
2018-11-04T13:08:12.831Z,19.40
2018-11-04T13:10:42.024Z,19.40
2018-11-04T13:13:11.269Z,19.40
2018-11-04T13:15:40.552Z,19.40
2018-11-04T13:18:09.776Z,19.40
2018-11-04T13:20:39.109Z,19.40
2018-11-04T13:23:08.397Z,19.50
2018-11-04T13:25:37.722Z,19.50
2018-11-04T13:28:07.189Z,19.50
2018-11-04T13:30:36.709Z,19.50
2018-11-04T13:33:06.002Z,19.50
2018-11-04T13:35:35.151Z,19.50
2018-11-04T13:38:04.419Z,19.50
2018-11-04T13:40:33.731Z,19.50
2018-11-04T13:43:03.045Z,19.50
2018-11-04T13:45:32.404Z,19.50
2018-11-04T13:48:01.737Z,19.40
2018-11-04T13:50:30.931Z,19.50
2018-11-04T13:53:00.371Z,19.50
2018-11-04T13:55:29.598Z,19.40
2018-11-04T13:57:58.883Z,19.40
2018-11-04T14:00:28.092Z,19.40
2018-11-04T14:02:57.419Z,19.40
2018-11-04T14:05:26.608Z,19.40
2018-11-04T14:07:55.888Z,19.40
2018-11-04T14:10:25.075Z,19.50
2018-11-04T14:12:54.344Z,19.50
2018-11-04T14:15:23.560Z,19.50
2018-11-04T14:17:52.777Z,19.40
2018-11-04T14:20:22.580Z,19.50
2018-11-04T14:22:51.896Z,19.50
2018-11-04T14:25:21.116Z,19.50
2018-11-04T14:27:50.373Z,19.40
2018-11-04T14:30:19.723Z,19.50
2018-11-04T14:32:49.009Z,19.50
2018-11-04T14:35:18.278Z,19.50
2018-11-04T14:37:48.230Z,19.50
2018-11-04T14:40:18.297Z,19.50
2018-11-04T14:42:47.540Z,19.50
2018-11-04T14:45:16.768Z,19.40
2018-11-04T14:47:46.068Z,19.40
2018-11-04T14:50:16.755Z,19.40
2018-11-04T14:52:46.077Z,19.40
2018-11-04T14:55:15.271Z,19.40
2018-11-04T14:57:44.515Z,19.40
2018-11-04T15:00:15.083Z,19.40
2018-11-04T15:02:44.284Z,19.40
2018-11-04T15:05:13.732Z,19.40
2018-11-04T15:07:43.018Z,19.30
2018-11-04T15:10:13.740Z,19.30
2018-11-04T15:12:43.148Z,19.30
2018-11-04T15:15:13.957Z,19.30
2018-11-04T15:17:43.649Z,19.30
2018-11-04T15:20:13.227Z,19.30
2018-11-04T15:22:48.612Z,19.20
2018-11-04T15:25:19.235Z,19.20
2018-11-04T15:27:48.823Z,19.20
2018-11-04T15:30:18.015Z,19.10
2018-11-04T15:32:47.379Z,19.20
2018-11-04T15:35:18.167Z,19.20
2018-11-04T15:37:47.489Z,19.20
2018-11-04T15:40:17.317Z,19.10
2018-11-04T15:42:46.606Z,19.10
2018-11-04T15:45:16.524Z,19.20
2018-11-04T15:47:45.816Z,19.20
2018-11-04T15:50:16.501Z,19.20
2018-11-04T15:52:45.923Z,19.20
2018-11-04T15:55:15.191Z,19.10
2018-11-04T15:57:44.555Z,19.10
2018-11-04T16:00:15.093Z,19.10
2018-11-04T16:02:44.548Z,19.10
2018-11-04T16:05:13.969Z,19.10
2018-11-04T16:07:43.311Z,19.10
2018-11-04T16:10:12.987Z,19.20
2018-11-04T16:12:42.234Z,19.20
2018-11-04T16:15:13.582Z,19.20
2018-11-04T16:17:43.360Z,19.20
2018-11-04T16:20:14.912Z,19.20
2018-11-04T16:22:44.819Z,19.20
2018-11-04T16:25:15.254Z,19.20
2018-11-04T16:27:44.584Z,19.20
2018-11-04T16:30:14.964Z,19.30
2018-11-04T16:32:44.351Z,19.40
2018-11-04T16:35:14.516Z,19.40
2018-11-04T16:37:44.790Z,19.40
2018-11-04T16:40:14.120Z,19.40
2018-11-04T16:42:43.440Z,19.40
2018-11-04T16:45:14.922Z,19.30
2018-11-04T16:47:44.322Z,19.30
2018-11-04T16:50:14.590Z,19.20
2018-11-04T16:52:45.599Z,19.30
2018-11-04T16:55:15.225Z,19.20
2018-11-04T16:57:44.767Z,19.20
2018-11-04T17:00:14.126Z,19.30
2018-11-04T17:02:44.501Z,19.30
2018-11-04T17:05:14.620Z,19.20
2018-11-04T17:07:44.148Z,19.20
2018-11-04T17:10:13.453Z,19.20
2018-11-04T17:12:42.803Z,19.20
2018-11-04T17:15:14.794Z,19.20
2018-11-04T17:17:45.268Z,19.20
2018-11-04T17:20:16.509Z,19.10
2018-11-04T17:22:46.235Z,19.10
2018-11-04T17:25:15.589Z,19.00
2018-11-04T17:27:45.763Z,19.00
2018-11-04T17:30:18.527Z,19.00
2018-11-04T17:32:48.286Z,19.00
2018-11-04T17:35:18.384Z,18.90
2018-11-04T17:37:48.107Z,19.00
2018-11-04T17:40:18.016Z,19.00
2018-11-04T17:42:47.305Z,19.00
2018-11-04T17:45:17.436Z,19.00
2018-11-04T17:47:47.486Z,19.00
2018-11-04T17:50:18.135Z,19.00
2018-11-04T17:52:47.458Z,19.00
2018-11-04T17:55:17.060Z,19.00
2018-11-04T17:57:46.518Z,19.00
2018-11-04T18:00:17.646Z,18.90
2018-11-04T18:02:47.079Z,18.90
2018-11-04T18:05:16.356Z,18.90
2018-11-04T18:07:45.813Z,18.90
2018-11-04T18:10:16.121Z,18.90
2018-11-04T18:12:45.496Z,18.90
2018-11-04T18:15:15.299Z,18.90
2018-11-04T18:17:44.600Z,18.90
2018-11-04T18:20:14.282Z,18.90
2018-11-04T18:22:43.569Z,18.90
2018-11-04T18:25:13.528Z,18.90
2018-11-04T18:27:43.708Z,18.90
2018-11-04T18:30:14.780Z,18.90
2018-11-04T18:32:44.723Z,18.90
2018-11-04T18:35:14.016Z,18.90
2018-11-04T18:37:43.528Z,18.90
2018-11-04T18:40:15.262Z,18.90
2018-11-04T18:42:45.127Z,19.00
2018-11-04T18:45:15.513Z,18.90
2018-11-04T18:47:45.177Z,18.90
2018-11-04T18:50:15.295Z,18.90
2018-11-04T18:52:44.846Z,18.90
2018-11-04T18:55:14.302Z,18.90
2018-11-04T18:57:44.897Z,18.90
2018-11-04T19:00:16.041Z,18.90
2018-11-04T19:02:46.279Z,18.90
2018-11-04T19:05:15.725Z,18.90
2018-11-04T19:07:46.149Z,18.90
2018-11-04T19:10:17.347Z,18.80
2018-11-04T19:12:46.861Z,18.80
2018-11-04T19:15:17.391Z,18.80
2018-11-04T19:17:48.067Z,18.80
2018-11-04T19:20:17.483Z,18.80
2018-11-04T19:22:46.945Z,18.80
2018-11-04T19:25:17.002Z,18.80
2018-11-04T19:27:46.542Z,18.80
2018-11-04T19:30:17.218Z,18.80
2018-11-04T19:32:50.011Z,18.70
2018-11-04T19:35:22.896Z,18.70
2018-11-04T19:37:53.029Z,18.70
2018-11-04T19:40:22.518Z,18.70
2018-11-04T19:42:51.963Z,18.70
2018-11-04T19:45:21.340Z,18.70
2018-11-04T19:47:50.612Z,18.70
2018-11-04T19:50:19.849Z,18.70
2018-11-04T19:52:49.144Z,18.70
2018-11-04T19:55:18.351Z,18.70
2018-11-04T19:57:47.826Z,18.70
2018-11-04T20:00:18.084Z,18.70
2018-11-04T20:02:51.796Z,18.70
2018-11-04T20:05:23.244Z,18.70
2018-11-04T20:07:52.603Z,18.70
2018-11-04T20:10:21.948Z,18.70
2018-11-04T20:12:56.410Z,18.70
2018-11-04T20:15:25.760Z,18.60
2018-11-04T20:17:55.027Z,18.70
2018-11-04T20:20:26.034Z,18.60
2018-11-04T20:22:55.387Z,18.60
2018-11-04T20:25:29.854Z,18.60
2018-11-04T20:27:59.250Z,18.60
2018-11-04T20:30:28.548Z,18.60
2018-11-04T20:33:04.477Z,18.60
2018-11-04T20:35:33.854Z,18.60
2018-11-04T20:38:03.159Z,18.60
2018-11-04T20:40:37.473Z,18.60
2018-11-04T20:43:07.166Z,18.60
2018-11-04T20:45:36.437Z,18.60
2018-11-04T20:48:11.367Z,18.60
2018-11-04T20:50:45.907Z,18.60
2018-11-04T20:53:15.217Z,18.70
2018-11-04T20:55:49.549Z,18.60
2018-11-04T20:58:18.981Z,18.60
2018-11-04T21:00:48.110Z,18.60
2018-11-04T21:03:17.408Z,18.70
2018-11-04T21:05:46.681Z,18.50
2018-11-04T21:08:15.935Z,18.50
2018-11-04T21:10:45.206Z,18.50
2018-11-04T21:13:14.509Z,18.50
2018-11-04T21:15:43.821Z,18.50
2018-11-04T21:18:13.061Z,18.50
2018-11-04T21:20:42.341Z,18.40
2018-11-04T21:23:11.664Z,18.50
2018-11-04T21:25:41.179Z,18.50
2018-11-04T21:28:10.360Z,18.50
2018-11-04T21:30:39.595Z,18.50
2018-11-04T21:33:08.892Z,18.50
2018-11-04T21:35:38.180Z,18.40
2018-11-04T21:38:07.481Z,18.50
2018-11-04T21:40:36.884Z,18.50
2018-11-04T21:43:06.327Z,18.50
2018-11-04T21:45:35.537Z,18.50
2018-11-04T21:48:04.889Z,18.50
2018-11-04T21:50:34.204Z,18.50
2018-11-04T21:53:03.728Z,18.50
2018-11-04T21:55:33.208Z,18.50
2018-11-04T21:58:02.380Z,18.60
2018-11-04T22:00:31.714Z,18.70
2018-11-04T22:03:01.012Z,18.70
2018-11-04T22:05:30.474Z,18.70
2018-11-04T22:07:59.836Z,18.70
2018-11-04T22:10:29.163Z,18.70
2018-11-04T22:12:58.465Z,18.70
2018-11-04T22:15:27.842Z,18.80
2018-11-04T22:17:57.101Z,18.80
2018-11-04T22:20:26.453Z,18.90
2018-11-04T22:22:55.795Z,18.90
2018-11-04T22:25:25.076Z,18.90
2018-11-04T22:27:54.341Z,18.90
2018-11-04T22:30:23.729Z,18.80
2018-11-04T22:32:52.994Z,18.80
2018-11-04T22:35:22.247Z,18.90
2018-11-04T22:37:51.548Z,18.80
2018-11-04T22:40:20.778Z,18.80
2018-11-04T22:42:50.043Z,18.80
2018-11-04T22:45:19.327Z,18.70
2018-11-04T22:47:48.590Z,18.70
2018-11-04T22:50:17.831Z,18.70
2018-11-04T22:52:47.066Z,18.60
2018-11-04T22:55:16.343Z,18.60
2018-11-04T22:57:45.850Z,18.60
2018-11-04T23:00:20.298Z,18.60
2018-11-04T23:02:50.477Z,18.60
2018-11-04T23:05:24.849Z,18.60
2018-11-04T23:07:54.151Z,18.60
2018-11-04T23:10:23.460Z,18.50
2018-11-04T23:12:52.744Z,18.60
2018-11-04T23:15:22.016Z,18.60
2018-11-04T23:17:51.326Z,18.50
2018-11-04T23:20:20.649Z,18.50
2018-11-04T23:22:50.021Z,18.50
2018-11-04T23:25:19.344Z,18.50
2018-11-04T23:27:48.581Z,18.50
2018-11-04T23:30:19.014Z,18.50
2018-11-04T23:32:48.606Z,18.50
2018-11-04T23:35:17.882Z,18.50
2018-11-04T23:37:47.175Z,18.50
2018-11-04T23:40:16.416Z,18.50
2018-11-04T23:42:45.712Z,18.40
2018-11-04T23:45:15.547Z,18.50
2018-11-04T23:47:44.994Z,18.40
2018-11-04T23:50:15.477Z,18.40
2018-11-04T23:52:45.212Z,18.40
2018-11-04T23:55:15.239Z,18.40
2018-11-04T23:57:44.517Z,18.40
